Forside
METAR-TAF:

METAR-TAF

Lufthavne :

Göteborg City Airport

Göteborg, Sverige

Breddekreds: 57-47N, længdekreds: 011-53E, højde: 20 m

Aktuelle vejr

Denne rapport blev lavet for 30 minutter siden, kl. 21:50 UTC
Vind stille
Temperatur -1°C
Fugtighed 74%
Tryk 1011 hPa
Sigt 10 km eller mere

METAR: ESGP 192150Z AUTO 00000KT 9999 NCD M01/M05 Q1011

Tid: 00:20 (22:20 UTC)

Vejrudsigter

Denne rapport blev lavet for 6 timer og 55 minutter siden, kl. 15:25 UTC
Foreløbig gælder fra 19 på 15 UTC til 19 på 17 UTC
Vind 13 kt fra nordøst
Sigt 10 km eller mere
Spredte skyer i en højde af 3000 ft
Midlertidig
fra 19 på 15 UTC til 19 på 17 UTC
Brudte skyer i en højde af 3000 ft, Cumulonimbus.

TAF: ESGP 191525Z 1915/1917 05013KT 9999 SCT030 TEMPO 1915/1917 BKN030CB

Vejrobservationer og prognoser fra mere end 4000 lufthavne (METAR og TAF).

De gule og røde prikker repræsenterer de meteorologiske stationer.

Flyt musen over at se navnet på stationen.

Så klik over at se vejr observationer og prognoser.

At skifte det kort: Klik på de grønne knapper med et sort kors for at zoome ind; på den grønne knap med en bindestreg for at zoome ud; eller på de grønne pile for tilstødende kort.


METAR-TAF: